Time;durP1;ratioP1;P1;durP2;ratioP2;P2;SDS_P1;SDS_P2;PMS_P1;PMS_P2;Temp;Humidity;BMP_temperature;BMP_pressure;BME280_temperature;BME280_humidity;BME280_pressure;Samples;Min_cycle;Max_cycle;Signal;HPM_P1;HPM_P2
2022/05/29 00:02:25;;;;;;;4.50;1.48;;;9.60;62.80;;;;;;5013878;28;20368;-77
2022/05/29 00:04:50;;;;;;;5.30;1.90;;;9.50;63.20;;;;;;5013720;28;20159;-76
2022/05/29 00:07:18;;;;;;;5.10;1.85;;;9.50;63.40;;;;;;5013644;28;20072;-78
2022/05/29 00:09:52;;;;;;;2.20;1.10;;;9.40;63.80;;;;;;4997335;28;20068;-77
2022/05/29 00:12:20;;;;;;;6.30;1.65;;;9.40;64.10;;;;;;5013988;28;20048;-77
2022/05/29 00:14:47;;;;;;;3.97;1.55;;;9.40;64.30;;;;;;5013825;28;20029;-79
2022/05/29 00:17:15;;;;;;;3.47;1.42;;;9.30;64.50;;;;;;5031847;28;20520;-77
2022/05/29 00:19:40;;;;;;;4.03;1.50;;;9.30;64.80;;;;;;5013813;28;20060;-77
2022/05/29 00:22:09;;;;;;;4.03;1.30;;;9.10;65.10;;;;;;5019794;28;20060;-78
2022/05/29 00:24:35;;;;;;;5.07;1.67;;;9.20;65.20;;;;;;5014459;28;20052;-80
2022/05/29 00:27:01;;;;;;;3.17;1.48;;;9.10;65.40;;;;;;5013194;28;20148;-78
2022/05/29 00:29:28;;;;;;;2.40;1.35;;;9.10;65.60;;;;;;5013860;28;20045;-80
2022/05/29 00:31:54;;;;;;;3.08;1.35;;;9.10;65.50;;;;;;5013446;28;20081;-80
2022/05/29 00:34:20;;;;;;;4.60;1.40;;;9.00;65.70;;;;;;5014199;28;20026;-80
2022/05/29 00:36:46;;;;;;;5.03;1.50;;;9.00;65.80;;;;;;5002933;28;20041;-77
2022/05/29 00:39:14;;;;;;;2.13;0.90;;;9.10;65.60;;;;;;5027801;28;20136;-78
2022/05/29 00:41:40;;;;;;;6.50;1.50;;;9.10;65.80;;;;;;5027137;28;20030;-78
2022/05/29 00:44:16;;;;;;;2.58;1.20;;;9.10;65.80;;;;;;5024516;28;20044;-81
2022/05/29 00:46:51;;;;;;;4.85;1.30;;;9.10;66.10;;;;;;5013190;28;20025;-78
2022/05/29 00:49:18;;;;;;;;;;;9.00;66.20;;;;;;5013635;28;20026;-79
2022/05/29 00:51:50;;;;;;;5.53;1.25;;;9.10;66.20;;;;;;5013161;28;19913;-78
2022/05/29 00:54:16;;;;;;;3.72;1.38;;;9.00;66.30;;;;;;5013118;28;20022;-77
2022/05/29 00:56:43;;;;;;;4.35;1.20;;;8.90;66.30;;;;;;5012824;28;20128;-81
2022/05/29 00:59:18;;;;;;;5.35;1.38;;;9.00;66.20;;;;;;5012892;28;20448;-80
2022/05/29 01:01:43;;;;;;;2.42;1.27;;;9.00;66.30;;;;;;5012900;28;20367;-80
2022/05/29 01:04:11;;;;;;;4.25;1.10;;;8.80;66.60;;;;;;5013074;28;20040;-80
2022/05/29 01:06:37;;;;;;;4.85;1.60;;;8.60;67.20;;;;;;5012681;28;20025;-82
2022/05/29 01:09:05;;;;;;;4.07;1.50;;;8.50;67.70;;;;;;5012980;28;20022;-79
2022/05/29 01:12:12;;;;;;;4.72;1.20;;;8.50;67.60;;;;;;5012746;28;20038;-82
2022/05/29 01:14:38;;;;;;;;;;;8.60;67.70;;;;;;5029584;28;20022;-82
2022/05/29 01:17:15;;;;;;;;;;;8.50;68.00;;;;;;5013098;28;19906;-80
2022/05/29 01:19:52;;;;;;;4.00;1.33;;;8.50;68.20;;;;;;5012586;28;20366;-82
2022/05/29 01:22:40;;;;;;;6.45;1.40;;;8.50;68.30;;;;;;5012442;28;20467;-81
2022/05/29 01:25:33;;;;;;;3.55;1.33;;;8.60;68.00;;;;;;5012291;28;20030;-81
2022/05/29 01:28:31;;;;;;;3.22;1.27;;;8.60;68.10;;;;;;5012031;28;20505;-81
2022/05/29 01:31:06;;;;;;;2.42;1.02;;;8.60;67.40;;;;;;5013577;28;20030;-82
2022/05/29 01:33:53;;;;;;;3.78;1.10;;;8.60;67.50;;;;;;5012081;28;20544;-81
2022/05/29 01:36:51;;;;;;;3.65;1.23;;;8.60;67.50;;;;;;5011967;28;20057;-80
2022/05/29 01:39:27;;;;;;;1.67;0.95;;;8.70;67.60;;;;;;5012295;28;20034;-77
2022/05/29 01:42:01;;;;;;;3.50;1.08;;;8.70;67.30;;;;;;5011941;28;20018;-76
2022/05/29 01:44:56;;;;;;;3.45;1.13;;;8.80;67.10;;;;;;4995995;28;20061;-77
2022/05/29 01:47:33;;;;;;;3.10;1.10;;;8.80;67.00;;;;;;5012345;28;20022;-78
2022/05/29 01:50:08;;;;;;;3.55;1.17;;;8.80;67.00;;;;;;5012446;28;20026;-76
2022/05/29 01:52:50;;;;;;;4.88;1.23;;;8.80;66.90;;;;;;5012258;28;20030;-76
2022/05/29 01:55:23;;;;;;;3.83;1.45;;;8.70;67.10;;;;;;5011966;28;20030;-77
2022/05/29 01:57:53;;;;;;;2.60;1.08;;;8.70;67.40;;;;;;5012040;28;20040;-77
2022/05/29 02:00:21;;;;;;;5.40;1.25;;;8.70;67.50;;;;;;4995498;28;20036;-77
2022/05/29 02:03:09;;;;;;;2.65;1.60;;;8.60;67.40;;;;;;5013173;28;20419;-78
2022/05/29 02:05:40;;;;;;;2.03;1.05;;;8.50;67.70;;;;;;5011876;28;20030;-79
2022/05/29 02:08:32;;;;;;;6.90;1.83;;;8.40;67.80;;;;;;5011895;28;20026;-77
2022/05/29 02:11:09;;;;;;;3.22;1.33;;;8.30;68.50;;;;;;5012098;28;20034;-76
2022/05/29 02:13:50;;;;;;;3.45;1.35;;;8.30;68.80;;;;;;5011561;28;20026;-77
2022/05/29 02:16:39;;;;;;;3.20;1.30;;;8.30;68.90;;;;;;5011794;28;20398;-76
2022/05/29 02:19:15;;;;;;;4.07;1.67;;;8.20;69.10;;;;;;4997990;28;20386;-76
2022/05/29 02:22:28;;;;;;;5.50;1.90;;;8.10;69.40;;;;;;5011658;28;20022;-76
2022/05/29 02:25:02;;;;;;;4.90;1.13;;;8.00;70.00;;;;;;4990913;28;20433;-76
2022/05/29 02:27:44;;;;;;;5.68;1.50;;;8.00;70.10;;;;;;5011998;28;20026;-76
2022/05/29 02:30:10;;;;;;;3.72;1.48;;;8.10;70.00;;;;;;5011642;28;20033;-77
2022/05/29 02:32:52;;;;;;;2.80;0.95;;;8.10;69.70;;;;;;5027800;28;20057;-76
2022/05/29 02:35:34;;;;;;;3.85;1.23;;;8.10;69.60;;;;;;5012684;28;20046;-77
2022/05/29 02:38:13;;;;;;;3.45;1.33;;;8.10;69.40;;;;;;5011890;28;20045;-77
2022/05/29 02:41:03;;;;;;;3.20;1.00;;;8.20;69.40;;;;;;5013479;28;20386;-77
2022/05/29 02:43:38;;;;;;;5.50;1.38;;;8.20;69.20;;;;;;5015704;28;20029;-77
2022/05/29 02:46:28;;;;;;;3.83;1.20;;;8.20;69.50;;;;;;5015460;28;20021;-77
2022/05/29 02:49:12;;;;;;;3.95;1.52;;;8.10;69.40;;;;;;5015114;28;20482;-77
2022/05/29 02:51:57;;;;;;;5.70;1.52;;;8.00;69.50;;;;;;5015332;28;20427;-77
2022/05/29 02:54:27;;;;;;;1.38;1.10;;;8.00;69.80;;;;;;5016659;28;20032;-77
2022/05/29 02:56:54;;;;;;;6.18;1.38;;;7.90;70.20;;;;;;4999442;28;20044;-77
2022/05/29 02:59:23;;;;;;;5.85;1.33;;;7.90;70.40;;;;;;5017901;28;20054;-77
2022/05/29 03:02:07;;;;;;;2.35;1.25;;;7.80;70.70;;;;;;5016175;28;20025;-77
2022/05/29 03:04:41;;;;;;;3.33;1.20;;;7.90;70.90;;;;;;5015134;28;20026;-77
2022/05/29 03:07:42;;;;;;;5.15;1.10;;;7.90;70.70;;;;;;5014994;28;20029;-76
2022/05/29 03:10:23;;;;;;;4.10;1.10;;;7.80;70.80;;;;;;5014848;28;20113;-76
2022/05/29 03:13:08;;;;;;;5.45;1.40;;;7.90;71.00;;;;;;5014555;28;20030;-76
2022/05/29 03:16:03;;;;;;;3.53;1.00;;;7.90;70.90;;;;;;5014970;28;20391;-77
2022/05/29 03:18:43;;;;;;;4.45;1.70;;;7.90;70.90;;;;;;5014755;28;20030;-76
2022/05/29 03:21:22;;;;;;;3.72;1.20;;;7.90;70.80;;;;;;5014515;28;20061;-77
2022/05/29 03:24:19;;;;;;;4.75;1.40;;;8.00;70.60;;;;;;5014655;28;20033;-76
2022/05/29 03:26:57;;;;;;;5.50;1.33;;;8.00;70.70;;;;;;5014485;28;20072;-77
2022/05/29 03:29:28;;;;;;;4.53;1.40;;;8.00;70.70;;;;;;5014784;28;20080;-76
2022/05/29 03:31:55;;;;;;;5.10;1.20;;;8.00;70.40;;;;;;5014413;28;20506;-77
2022/05/29 03:34:22;;;;;;;2.42;1.23;;;8.10;70.90;;;;;;5014565;28;20072;-76
2022/05/29 03:36:50;;;;;;;2.38;1.15;;;8.10;70.10;;;;;;5014435;28;20392;-76
2022/05/29 03:39:17;;;;;;;2.63;1.10;;;8.10;70.00;;;;;;5014280;28;20121;-76
2022/05/29 03:41:49;;;;;;;6.05;1.60;;;8.20;70.10;;;;;;5014647;28;20378;-75
2022/05/29 03:44:17;;;;;;;5.32;1.40;;;8.20;69.70;;;;;;5014391;28;20064;-75
2022/05/29 03:46:44;;;;;;;4.75;1.75;;;8.10;70.00;;;;;;5014324;28;20040;-76
2022/05/29 03:49:16;;;;;;;2.47;1.25;;;8.20;70.10;;;;;;4998244;28;20037;-74
2022/05/29 03:51:43;;;;;;;2.30;1.38;;;8.20;70.00;;;;;;5013636;28;20042;-74
2022/05/29 03:54:09;;;;;;;3.75;1.40;;;8.30;69.70;;;;;;5014007;28;20033;-75
2022/05/29 03:56:36;;;;;;;3.28;1.52;;;8.20;69.80;;;;;;4997885;28;20034;-76
2022/05/29 03:59:02;;;;;;;3.95;1.48;;;8.30;70.50;;;;;;5014068;28;20028;-76
2022/05/29 04:01:28;;;;;;;3.88;1.67;;;8.30;69.60;;;;;;5014116;28;20026;-76
2022/05/29 04:03:56;;;;;;;5.30;1.40;;;8.30;70.50;;;;;;5014032;28;20475;-76
2022/05/29 04:06:22;;;;;;;2.60;1.20;;;8.20;69.60;;;;;;5013895;28;20133;-76
2022/05/29 04:14:17;;;;;;;8.25;1.35;;;8.10;70.30;;;;;;5015232;28;20084;-76
2022/05/29 04:16:43;;;;;;;4.45;1.33;;;8.20;70.10;;;;;;4997713;28;20030;-76
2022/05/29 04:19:08;;;;;;;3.30;1.55;;;8.30;69.80;;;;;;5013502;28;20022;-77
2022/05/29 04:21:34;;;;;;;4.15;1.80;;;8.40;69.60;;;;;;4997258;28;20062;-77
2022/05/29 04:24:00;;;;;;;2.72;1.77;;;8.50;69.20;;;;;;5013662;28;20057;-78
2022/05/29 04:26:26;;;;;;;3.78;1.48;;;8.60;69.00;;;;;;4997188;28;20033;-79
2022/05/29 04:28:52;;;;;;;3.97;1.50;;;8.70;68.80;;;;;;5013278;28;20115;-78
2022/05/29 04:31:18;;;;;;;2.90;1.17;;;8.80;68.40;;;;;;5013522;28;20072;-78
2022/05/29 04:33:43;;;;;;;2.47;1.38;;;8.80;68.10;;;;;;5013557;28;20022;-78
2022/05/29 04:36:10;;;;;;;4.00;1.65;;;8.80;68.00;;;;;;5013229;28;20050;-78
2022/05/29 04:38:35;;;;;;;4.05;1.23;;;9.00;67.90;;;;;;4997055;28;20030;-78
2022/05/29 04:41:06;;;;;;;2.35;1.25;;;9.10;67.70;;;;;;4997009;28;20368;-78
2022/05/29 04:43:32;;;;;;;3.40;1.27;;;9.10;67.20;;;;;;5013238;28;20037;-78
2022/05/29 04:45:58;;;;;;;7.57;1.65;;;9.10;66.90;;;;;;5012897;28;20025;-78
2022/05/29 04:48:24;;;;;;;1.92;1.20;;;9.10;66.80;;;;;;5013066;28;20030;-77
2022/05/29 04:51:01;;;;;;;3.55;1.48;;;9.00;66.70;;;;;;5013097;28;20056;-77
2022/05/29 04:53:29;;;;;;;4.70;1.52;;;9.00;67.90;;;;;;5013293;28;20482;-77
2022/05/29 04:55:56;;;;;;;3.25;1.60;;;9.10;67.20;;;;;;5013067;28;20026;-77
2022/05/29 04:58:23;;;;;;;2.63;1.33;;;9.10;67.10;;;;;;5012181;28;20536;-77
2022/05/29 05:00:54;;;;;;;2.70;1.40;;;9.20;67.00;;;;;;5013139;28;20030;-77
2022/05/29 05:03:19;;;;;;;3.60;1.70;;;9.40;66.80;;;;;;5012680;28;20026;-77
2022/05/29 05:05:46;;;;;;;3.90;1.42;;;9.50;66.60;;;;;;5012784;28;20364;-77
2022/05/29 05:08:12;;;;;;;3.13;1.80;;;9.60;66.10;;;;;;5012765;28;20030;-77
2022/05/29 05:10:40;;;;;;;4.88;1.90;;;9.70;65.90;;;;;;4996027;28;20030;-78
2022/05/29 05:13:08;;;;;;;5.40;1.77;;;9.80;65.50;;;;;;5012734;28;20052;-78
2022/05/29 05:15:34;;;;;;;2.80;1.83;;;9.90;65.30;;;;;;5012840;28;20022;-77
2022/05/29 05:17:59;;;;;;;3.28;1.75;;;10.00;65.20;;;;;;5012725;28;20026;-77
2022/05/29 05:20:25;;;;;;;2.97;1.80;;;10.00;65.00;;;;;;5013455;28;20475;-79
2022/05/29 05:22:52;;;;;;;4.25;2.15;;;10.10;64.60;;;;;;5021701;28;20501;-80
2022/05/29 05:25:19;;;;;;;7.80;2.03;;;10.20;64.00;;;;;;4999398;28;20030;-79
2022/05/29 05:27:45;;;;;;;1.90;1.40;;;10.30;63.50;;;;;;5012284;28;20076;-78
2022/05/29 05:30:12;;;;;;;3.22;1.50;;;10.40;63.20;;;;;;5013820;28;20045;-78
2022/05/29 05:32:39;;;;;;;6.85;2.10;;;10.60;62.80;;;;;;4996258;28;20057;-78
2022/05/29 05:35:07;;;;;;;4.50;1.60;;;10.70;62.30;;;;;;5012012;28;20038;-78
2022/05/29 05:37:35;;;;;;;4.47;1.20;;;10.70;62.00;;;;;;5013850;28;20033;-78
2022/05/29 05:40:04;;;;;;;3.63;1.48;;;10.80;61.70;;;;;;5012302;28;20044;-78
2022/05/29 05:42:30;;;;;;;4.57;1.40;;;10.80;61.00;;;;;;5012307;28;20386;-79
2022/05/29 05:44:56;;;;;;;4.20;1.70;;;10.90;60.90;;;;;;5012235;28;20026;-79
2022/05/29 05:47:22;;;;;;;6.07;1.95;;;11.00;60.50;;;;;;5012470;28;20084;-78
2022/05/29 05:49:50;;;;;;;4.78;2.00;;;11.10;60.30;;;;;;5012048;28;20056;-79
2022/05/29 05:52:17;;;;;;;4.38;1.85;;;10.90;60.50;;;;;;5011885;28;20083;-78
2022/05/29 05:54:43;;;;;;;3.83;1.70;;;10.90;60.90;;;;;;4995332;28;20125;-77
2022/05/29 05:57:08;;;;;;;4.65;1.60;;;11.10;60.70;;;;;;5011894;28;20112;-77
2022/05/29 05:59:36;;;;;;;5.22;1.70;;;11.20;60.40;;;;;;5012054;28;20471;-77
2022/05/29 06:02:01;;;;;;;5.93;1.33;;;11.20;59.80;;;;;;5011589;28;20026;-79
2022/05/29 06:04:27;;;;;;;3.45;1.48;;;11.30;59.80;;;;;;5011461;28;20033;-78
2022/05/29 06:06:54;;;;;;;7.53;2.05;;;11.40;59.60;;;;;;5011495;28;20029;-79
2022/05/29 06:09:20;;;;;;;6.25;1.67;;;11.50;59.80;;;;;;4995920;28;20091;-76
2022/05/29 06:11:46;;;;;;;3.83;1.42;;;11.70;59.60;;;;;;5011630;28;20042;-80
2022/05/29 06:14:12;;;;;;;5.28;1.77;;;11.80;59.30;;;;;;4995082;28;20030;-76
2022/05/29 06:16:38;;;;;;;4.88;2.03;;;12.00;58.30;;;;;;4998910;28;20501;-76
2022/05/29 06:19:05;;;;;;;6.10;2.00;;;12.00;57.60;;;;;;5015437;28;20026;-79
2022/05/29 06:21:31;;;;;;;4.80;1.73;;;11.90;57.80;;;;;;5015644;28;20080;-79
2022/05/29 06:23:56;;;;;;;4.10;1.48;;;11.90;58.00;;;;;;5015570;28;20029;-79
2022/05/29 06:26:22;;;;;;;8.02;1.88;;;11.90;58.40;;;;;;5032232;28;20022;-76
2022/05/29 06:28:48;;;;;;;2.22;1.17;;;12.00;58.30;;;;;;5015987;28;20418;-78
2022/05/29 06:31:17;;;;;;;3.40;1.73;;;12.20;58.10;;;;;;5015272;28;20030;-79
2022/05/29 06:33:44;;;;;;;3.97;1.75;;;12.30;57.90;;;;;;5015611;28;20068;-80
2022/05/29 06:36:16;;;;;;;8.50;2.03;;;12.10;58.40;;;;;;5015395;28;20054;-79
2022/05/29 06:38:44;;;;;;;4.70;1.73;;;12.20;59.00;;;;;;5015458;28;20033;-79
2022/05/29 06:41:12;;;;;;;5.80;1.73;;;12.10;58.90;;;;;;5015184;28;20033;-78
2022/05/29 06:43:38;;;;;;;5.72;1.40;;;12.20;58.80;;;;;;5031929;28;20052;-79
2022/05/29 06:46:06;;;;;;;6.63;1.83;;;12.30;58.80;;;;;;5014960;28;20025;-78
2022/05/29 06:48:34;;;;;;;3.30;1.35;;;12.30;58.40;;;;;;5031962;28;20177;-79
2022/05/29 06:51:04;;;;;;;5.78;1.95;;;12.30;58.90;;;;;;4998708;28;20038;-78
2022/05/29 06:53:29;;;;;;;5.55;1.65;;;12.30;58.50;;;;;;5015264;28;20395;-78
2022/05/29 06:55:56;;;;;;;3.83;1.50;;;12.40;57.50;;;;;;5014888;28;20022;-78
2022/05/29 06:58:22;;;;;;;9.98;1.92;;;12.40;56.70;;;;;;4998511;28;20100;-77
2022/05/29 07:09:04;;;;;;;3.83;1.40;;;12.50;55.40;;;;;;5016002;28;20103;-77
2022/05/29 07:11:34;;;;;;;4.60;1.60;;;12.50;55.00;;;;;;5014881;28;20053;-77
2022/05/29 07:14:02;;;;;;;5.13;1.30;;;12.80;55.50;;;;;;5014570;28;20124;-77
2022/05/29 07:16:27;;;;;;;6.15;1.48;;;13.00;52.20;;;;;;5014197;28;20030;-76
2022/05/29 07:18:54;;;;;;;5.78;1.60;;;13.00;52.20;;;;;;5015645;28;20029;-76
2022/05/29 07:21:21;;;;;;;3.25;1.45;;;13.00;52.90;;;;;;5014330;28;20498;-76
2022/05/29 07:23:47;;;;;;;4.30;1.10;;;13.40;52.90;;;;;;5014959;28;20026;-79
2022/05/29 07:26:12;;;;;;;6.63;1.67;;;13.80;52.60;;;;;;5013450;28;20493;-78
2022/05/29 07:28:38;;;;;;;10.05;2.10;;;14.00;50.30;;;;;;5014369;28;20422;-80
2022/05/29 07:31:07;;;;;;;4.35;2.10;;;13.90;50.30;;;;;;5014175;28;20057;-79
2022/05/29 07:33:33;;;;;;;8.48;2.13;;;13.50;51.10;;;;;;4998089;28;20037;-75
2022/05/29 07:36:00;;;;;;;5.07;1.70;;;13.80;55.70;;;;;;5014439;28;20052;-76
2022/05/29 07:38:28;;;;;;;4.97;1.30;;;14.30;53.10;;;;;;5030882;28;20109;-75
2022/05/29 07:40:54;;;;;;;5.38;1.50;;;14.50;51.80;;;;;;4998022;28;20026;-75
2022/05/29 07:43:20;;;;;;;4.85;1.50;;;14.90;50.10;;;;;;5014235;28;20036;-75
2022/05/29 07:45:50;;;;;;;4.18;2.00;;;15.40;48.20;;;;;;5014220;28;20463;-74
2022/05/29 07:48:17;;;;;;;4.97;1.67;;;15.70;46.50;;;;;;5014282;28;20080;-74
2022/05/29 07:50:44;;;;;;;5.75;1.75;;;15.60;46.20;;;;;;5014407;28;20022;-76
2022/05/29 07:53:10;;;;;;;7.93;1.85;;;15.30;47.50;;;;;;4998107;28;20041;-76
2022/05/29 07:55:39;;;;;;;4.63;1.90;;;15.30;48.20;;;;;;4997491;28;20075;-75
2022/05/29 07:58:07;;;;;;;3.25;1.60;;;15.20;48.00;;;;;;4997881;28;20116;-75
2022/05/29 08:00:34;;;;;;;6.43;1.58;;;15.10;48.20;;;;;;4997777;28;20030;-76
2022/05/29 08:03:00;;;;;;;4.03;1.98;;;14.90;49.50;;;;;;5014084;28;20039;-76
2022/05/29 08:05:26;;;;;;;5.05;1.67;;;14.80;50.90;;;;;;5014083;28;20026;-76
2022/05/29 08:07:52;;;;;;;4.20;1.60;;;14.70;50.30;;;;;;5014129;28;20029;-75
2022/05/29 08:10:21;;;;;;;5.85;1.60;;;14.60;52.00;;;;;;5013808;28;20022;-75
2022/05/29 08:12:50;;;;;;;5.35;1.88;;;14.20;51.70;;;;;;5013651;28;20076;-75
2022/05/29 08:15:15;;;;;;;6.28;1.90;;;13.70;54.50;;;;;;5014042;28;20065;-75
2022/05/29 08:17:41;;;;;;;5.72;2.00;;;13.60;55.10;;;;;;5015387;28;20061;-75
2022/05/29 08:20:11;;;;;;;3.42;1.45;;;13.50;55.80;;;;;;5015169;28;20022;-84
2022/05/29 08:22:37;;;;;;;5.15;1.55;;;13.20;57.40;;;;;;5016890;28;20022;-80
2022/05/29 08:30:51;;;;;;;5.13;2.13;;;12.40;59.80;;;;;;5014990;28;20045;-79
2022/05/29 08:33:24;;;;;;;6.32;1.63;;;12.50;59.10;;;;;;5029845;28;20124;-79
2022/05/29 08:35:54;;;;;;;6.75;1.42;;;12.50;59.40;;;;;;5012809;28;20042;-80
2022/05/29 08:38:21;;;;;;;5.72;1.80;;;12.70;59.00;;;;;;5029253;28;20033;-79
2022/05/29 08:41:17;;;;;;;4.93;1.52;;;12.90;58.00;;;;;;5014647;28;20101;-82
2022/05/29 08:44:08;;;;;;;5.35;1.38;;;13.10;57.50;;;;;;5013157;28;20033;-80
2022/05/29 08:47:00;;;;;;;7.65;1.70;;;13.40;56.90;;;;;;5013827;28;20036;-82
2022/05/29 08:49:39;;;;;;;8.13;1.73;;;13.70;55.70;;;;;;5014297;28;20105;-80
2022/05/29 08:52:47;;;;;;;6.18;1.40;;;14.20;54.50;;;;;;5014249;28;20049;-79
2022/05/29 08:55:45;;;;;;;4.50;1.55;;;14.80;53.20;;;;;;5015420;28;20042;-79
2022/05/29 08:58:35;;;;;;;4.13;1.20;;;14.70;50.30;;;;;;5013286;28;20045;-82
2022/05/29 09:01:16;;;;;;;7.07;1.77;;;14.50;51.40;;;;;;5016774;28;20085;-84
2022/05/29 09:04:05;;;;;;;4.50;1.42;;;14.20;51.30;;;;;;4998445;28;20515;-82
2022/05/29 09:06:52;;;;;;;7.88;1.50;;;14.20;51.20;;;;;;5013245;28;20030;-82
2022/05/29 09:10:11;;;;;;;6.07;1.65;;;14.30;50.10;;;;;;5014171;28;20022;-78
2022/05/29 09:12:44;;;;;;;6.68;1.48;;;14.30;50.50;;;;;;4996682;28;20033;-79
2022/05/29 09:15:38;;;;;;;3.05;1.13;;;14.20;50.60;;;;;;5013719;28;20088;-79
2022/05/29 09:18:12;;;;;;;4.32;1.48;;;14.20;51.40;;;;;;5013162;28;20474;-79
2022/05/29 09:21:08;;;;;;;5.13;1.27;;;14.60;49.30;;;;;;4996398;28;20490;-79
2022/05/29 09:23:59;;;;;;;6.97;1.77;;;14.90;47.00;;;;;;5013744;28;20493;-76
2022/05/29 09:26:34;;;;;;;4.20;1.45;;;15.00;48.10;;;;;;5012366;28;20026;-79
2022/05/29 09:29:00;;;;;;;6.93;1.40;;;14.80;50.10;;;;;;5012701;28;20026;-77
2022/05/29 09:31:28;;;;;;;4.93;1.90;;;14.50;51.10;;;;;;4996410;28;20049;-81
2022/05/29 09:33:55;;;;;;;7.57;2.25;;;14.00;52.20;;;;;;5013085;28;20022;-79
2022/05/29 09:36:58;;;;;;;6.18;1.92;;;13.90;54.30;;;;;;4993582;28;20053;-78
2022/05/29 09:39:37;;;;;;;6.15;2.28;;;13.80;55.50;;;;;;5010958;28;20030;-80
2022/05/29 09:42:14;;;;;;;10.73;1.65;;;13.80;55.40;;;;;;5012368;28;20041;-78
2022/05/29 09:45:03;;;;;;;9.75;2.38;;;13.80;54.10;;;;;;5012041;28;20120;-75
2022/05/29 09:50:17;;;;;;;7.40;1.80;;;14.40;52.10;;;;;;5013653;28;20489;-81
2022/05/29 09:52:45;;;;;;;7.60;2.03;;;14.20;51.60;;;;;;5014290;28;20097;-79
2022/05/29 09:55:54;;;;;;;6.68;1.60;;;14.30;52.30;;;;;;5017324;28;20029;-81
2022/05/29 09:58:47;;;;;;;4.93;1.40;;;14.60;54.10;;;;;;5014417;28;20101;-81
2022/05/29 10:01:29;;;;;;;5.07;1.77;;;15.10;52.20;;;;;;5013090;28;20026;-80
2022/05/29 10:03:58;;;;;;;3.70;1.52;;;15.60;50.50;;;;;;5012733;28;20034;-84
2022/05/29 10:06:42;;;;;;;8.02;1.92;;;15.70;48.40;;;;;;5010828;28;20117;-80
2022/05/29 10:09:20;;;;;;;4.38;2.00;;;15.40;49.30;;;;;;5011821;28;20025;-79
2022/05/29 10:11:49;;;;;;;5.55;1.70;;;14.70;51.10;;;;;;5011750;28;20508;-79
2022/05/29 10:14:22;;;;;;;3.28;1.45;;;14.00;52.90;;;;;;5011854;28;20022;-82
2022/05/29 10:16:49;;;;;;;7.38;2.20;;;13.70;54.40;;;;;;5012130;28;20029;-79
2022/05/29 10:19:42;;;;;;;6.45;2.17;;;13.50;54.80;;;;;;4995682;28;20040;-79
2022/05/29 10:22:23;;;;;;;5.90;2.10;;;13.30;55.30;;;;;;5011974;28;20382;-80
2022/05/29 10:24:50;;;;;;;3.63;1.90;;;13.30;54.80;;;;;;5012146;28;20029;-79
2022/05/29 10:27:36;;;;;;;5.07;1.75;;;13.30;54.30;;;;;;5012175;28;20033;-79
2022/05/29 10:30:11;;;;;;;4.72;1.75;;;13.10;56.00;;;;;;5012311;28;20026;-80
2022/05/29 10:32:44;;;;;;;7.80;1.63;;;13.00;56.40;;;;;;5010847;28;20673;-78
2022/05/29 10:35:30;;;;;;;6.90;1.95;;;12.60;57.00;;;;;;5012824;28;20030;-80
2022/05/29 10:37:56;;;;;;;6.43;1.42;;;12.50;57.80;;;;;;5010386;28;20080;-79
2022/05/29 10:40:32;;;;;;;4.43;1.42;;;12.60;57.80;;;;;;5012407;28;20026;-78
2022/05/29 10:43:01;;;;;;;3.42;1.55;;;12.70;58.00;;;;;;4995874;28;20564;-79
2022/05/29 10:45:40;;;;;;;5.60;2.10;;;12.90;56.90;;;;;;5011754;28;20022;-80
2022/05/29 10:48:24;;;;;;;6.18;1.70;;;12.80;56.90;;;;;;5011657;28;20057;-81
2022/05/29 10:51:14;;;;;;;5.03;1.50;;;12.80;56.80;;;;;;5009840;28;20026;-81
2022/05/29 10:54:21;;;;;;;5.50;1.67;;;12.80;56.80;;;;;;5011418;28;20053;-78
2022/05/29 10:57:15;;;;;;;2.78;1.45;;;12.90;56.30;;;;;;5027598;28;20067;-80
2022/05/29 11:00:16;;;;;;;5.85;1.70;;;13.40;55.90;;;;;;5011335;28;20034;-80
2022/05/29 11:03:18;;;;;;;4.60;1.60;;;13.60;55.10;;;;;;4976569;28;20038;-85
2022/05/29 11:06:26;;;;;;;5.60;1.33;;;14.10;53.40;;;;;;5014980;28;20018;-83
2022/05/29 11:09:30;;;;;;;7.25;1.40;;;14.80;51.30;;;;;;5015821;28;20022;-79
2022/05/29 11:12:24;;;;;;;4.55;1.38;;;15.40;47.90;;;;;;5016117;28;20034;-79
2022/05/29 11:15:15;;;;;;;4.30;1.42;;;15.50;46.10;;;;;;4994088;28;20112;-82
2022/05/29 11:18:06;;;;;;;5.03;0.98;;;15.30;46.50;;;;;;4999711;28;20056;-81
2022/05/29 11:20:43;;;;;;;3.70;1.65;;;15.20;46.40;;;;;;5022404;28;20026;-81
2022/05/29 11:23:48;;;;;;;4.35;1.17;;;14.90;47.30;;;;;;5014641;28;20041;-77
2022/05/29 11:26:39;;;;;;;3.70;1.30;;;14.60;47.80;;;;;;5016121;28;20026;-77
2022/05/29 11:29:21;;;;;;;5.65;1.42;;;14.30;49.00;;;;;;5012541;28;20026;-81
2022/05/29 11:32:22;;;;;;;3.85;1.33;;;14.50;49.50;;;;;;5014620;28;20041;-80
2022/05/29 11:34:55;;;;;;;2.95;1.33;;;14.40;47.90;;;;;;5014937;28;20018;-79
2022/05/29 11:38:06;;;;;;;4.03;1.23;;;14.70;48.80;;;;;;5014985;28;20057;-79
2022/05/29 11:40:41;;;;;;;3.65;1.02;;;15.60;46.00;;;;;;4979682;28;20026;-79
2022/05/29 11:43:34;;;;;;;1.80;0.60;;;16.10;45.10;;;;;;4999341;28;20041;-81
2022/05/29 11:51:56;;;;;;;2.88;1.20;;;15.50;44.10;;;;;;5016796;28;20057;-79
2022/05/29 11:54:43;;;;;;;3.33;1.02;;;15.60;46.10;;;;;;4998326;28;20022;-81
2022/05/29 11:57:17;;;;;;;3.22;1.20;;;15.70;44.60;;;;;;5013820;28;20125;-77
2022/05/29 11:59:55;;;;;;;4.18;1.70;;;15.50;43.90;;;;;;5014342;28;20124;-78
2022/05/29 12:02:46;;;;;;;2.60;1.20;;;15.10;44.60;;;;;;5014201;28;20382;-82
2022/05/29 12:05:27;;;;;;;4.60;1.10;;;15.10;44.40;;;;;;5015416;28;20390;-84
2022/05/29 12:08:16;;;;;;;2.92;1.13;;;15.40;44.70;;;;;;5013814;28;20064;-81
2022/05/29 12:11:18;;;;;;;2.35;0.90;;;15.70;44.40;;;;;;5015318;28;20029;-83
2022/05/29 12:14:02;;;;;;;2.85;1.13;;;15.90;43.60;;;;;;5013351;28;20042;-82
2022/05/29 12:16:38;;;;;;;1.77;0.80;;;16.50;44.90;;;;;;5013780;28;20434;-84
2022/05/29 12:19:15;;;;;;;3.20;1.00;;;16.70;42.30;;;;;;5013712;28;20057;-80
2022/05/29 12:21:49;;;;;;;3.28;1.17;;;16.90;41.10;;;;;;5014054;28;20503;-79
2022/05/29 12:24:22;;;;;;;2.60;0.70;;;17.10;41.20;;;;;;5014729;28;20033;-81
2022/05/29 12:26:59;;;;;;;2.67;0.98;;;17.00;39.40;;;;;;5014060;28;20038;-80
2022/05/29 12:29:53;;;;;;;5.60;0.93;;;17.20;39.20;;;;;;5014620;28;20049;-81
2022/05/29 12:32:24;;;;;;;1.75;0.60;;;17.40;37.80;;;;;;5013388;28;20053;-79
2022/05/29 12:35:25;;;;;;;1.30;0.60;;;17.30;37.10;;;;;;5013432;28;20040;-82
2022/05/29 12:38:14;;;;;;;2.90;0.98;;;16.90;36.20;;;;;;5014058;28;20071;-81
2022/05/29 12:40:52;;;;;;;2.20;0.68;;;16.60;36.10;;;;;;5013886;28;20026;-84
2022/05/29 12:43:54;;;;;;;3.22;0.88;;;17.10;36.90;;;;;;5012762;28;20161;-81
2022/05/29 12:46:56;;;;;;;5.15;0.60;;;18.00;35.10;;;;;;5013326;28;20029;-75
2022/05/29 12:49:31;;;;;;;1.30;0.50;;;17.50;32.70;;;;;;5012980;28;20029;-76
2022/05/29 12:52:18;;;;;;;1.33;0.73;;;17.70;36.50;;;;;;5012958;28;20117;-81
2022/05/29 12:55:08;;;;;;;2.33;1.10;;;18.30;35.50;;;;;;5012572;28;20022;-75
2022/05/29 12:58:03;;;;;;;4.63;1.77;;;18.60;34.60;;;;;;5012850;28;20470;-73
2022/05/29 13:00:49;;;;;;;3.38;0.85;;;18.70;34.70;;;;;;5013044;28;20470;-83
2022/05/29 13:03:26;;;;;;;4.15;1.73;;;19.00;35.00;;;;;;5013328;28;20038;-84
2022/05/29 13:06:27;;;;;;;3.70;1.50;;;19.20;33.70;;;;;;5013238;28;20033;-87
2022/05/29 13:09:02;;;;;;;4.70;1.48;;;19.00;34.30;;;;;;5013013;28;20018;-83
2022/05/29 13:11:36;;;;;;;3.47;0.60;;;18.90;35.50;;;;;;5013882;28;20124;-87
2022/05/29 13:14:06;;;;;;;3.15;0.60;;;18.80;35.00;;;;;;5013491;28;20030;-74
2022/05/29 13:16:41;;;;;;;1.60;0.60;;;18.80;34.10;;;;;;5012957;28;20410;-81
2022/05/29 13:19:25;;;;;;;3.78;0.68;;;19.10;34.90;;;;;;5013075;28;20034;-76
2022/05/29 13:22:09;;;;;;;2.75;0.93;;;19.50;33.90;;;;;;5013516;28;20081;-78
2022/05/29 13:24:38;;;;;;;4.63;1.23;;;20.00;33.80;;;;;;5013314;28;20022;-78
2022/05/29 13:27:30;;;;;;;2.88;2.00;;;20.00;33.80;;;;;;5020606;28;20378;-79
2022/05/29 13:29:58;;;;;;;3.55;1.90;;;20.20;33.70;;;;;;5001335;28;20030;-80
2022/05/29 13:32:30;;;;;;;3.33;1.20;;;20.40;32.40;;;;;;5012982;28;20057;-77
2022/05/29 13:35:08;;;;;;;2.88;1.08;;;20.50;32.50;;;;;;5012837;28;20026;-82
2022/05/29 13:37:50;;;;;;;3.38;0.90;;;20.70;32.80;;;;;;5013185;28;20033;-81
2022/05/29 13:40:27;;;;;;;4.65;1.10;;;19.90;30.60;;;;;;4997183;28;20450;-84
2022/05/29 13:43:15;;;;;;;4.03;1.10;;;19.60;32.50;;;;;;5013597;28;20026;-77
2022/05/29 13:45:44;;;;;;;3.60;1.08;;;19.80;34.00;;;;;;5014153;28;20050;-79
2022/05/29 13:48:25;;;;;;;3.50;1.00;;;20.20;32.80;;;;;;5012532;28;20382;-79
2022/05/29 13:51:03;;;;;;;1.77;0.60;;;19.80;31.30;;;;;;5012653;28;20121;-79
2022/05/29 13:53:50;;;;;;;2.95;1.35;;;19.60;32.90;;;;;;5012735;28;20040;-79
2022/05/29 13:56:18;;;;;;;2.67;1.10;;;19.50;33.90;;;;;;5012614;28;20072;-80
2022/05/29 14:05:00;;;;;;;4.28;1.20;;;19.30;34.10;;;;;;5013540;28;20074;-81
2022/05/29 14:07:33;;;;;;;2.88;0.95;;;18.90;34.20;;;;;;4960612;28;20034;-79
2022/05/29 14:10:20;;;;;;;2.42;0.88;;;19.00;34.80;;;;;;4997688;28;20030;-79